sensor_id;sensor_type;location;lat;lon;timestamp;P1;durP1;ratioP1;P2;durP2;ratioP2
10719;SDS011;5411;58.386;15.560;2023-05-07T00:00:04;3.73;;;2.10;;
10719;SDS011;5411;58.386;15.560;2023-05-07T00:02:35;3.23;;;2.40;;
10719;SDS011;5411;58.386;15.560;2023-05-07T00:05:08;6.40;;;2.00;;
10719;SDS011;5411;58.386;15.560;2023-05-07T00:07:37;2.77;;;2.23;;
10719;SDS011;5411;58.386;15.560;2023-05-07T00:10:07;2.87;;;2.17;;
10719;SDS011;5411;58.386;15.560;2023-05-07T00:12:36;5.07;;;2.40;;
10719;SDS011;5411;58.386;15.560;2023-05-07T00:15:05;2.60;;;1.87;;
10719;SDS011;5411;58.386;15.560;2023-05-07T00:17:35;2.27;;;1.83;;
10719;SDS011;5411;58.386;15.560;2023-05-07T00:20:06;3.80;;;2.00;;
10719;SDS011;5411;58.386;15.560;2023-05-07T00:22:35;3.83;;;2.10;;
10719;SDS011;5411;58.386;15.560;2023-05-07T00:25:04;3.80;;;2.00;;
10719;SDS011;5411;58.386;15.560;2023-05-07T00:27:33;2.33;;;2.13;;
10719;SDS011;5411;58.386;15.560;2023-05-07T00:30:05;3.10;;;2.33;;
10719;SDS011;5411;58.386;15.560;2023-05-07T00:32:40;2.83;;;2.03;;
10719;SDS011;5411;58.386;15.560;2023-05-07T00:35:22;5.13;;;2.13;;
10719;SDS011;5411;58.386;15.560;2023-05-07T00:37:50;3.03;;;1.93;;
10719;SDS011;5411;58.386;15.560;2023-05-07T00:40:18;3.07;;;2.17;;
10719;SDS011;5411;58.386;15.560;2023-05-07T00:42:48;2.60;;;2.10;;
10719;SDS011;5411;58.386;15.560;2023-05-07T00:45:17;3.53;;;2.37;;
10719;SDS011;5411;58.386;15.560;2023-05-07T00:47:45;3.40;;;2.10;;
10719;SDS011;5411;58.386;15.560;2023-05-07T00:50:14;3.73;;;2.03;;
10719;SDS011;5411;58.386;15.560;2023-05-07T00:52:44;3.87;;;2.10;;
10719;SDS011;5411;58.386;15.560;2023-05-07T00:55:13;4.57;;;2.83;;
10719;SDS011;5411;58.386;15.560;2023-05-07T00:57:45;2.60;;;2.40;;
10719;SDS011;5411;58.386;15.560;2023-05-07T01:00:13;2.67;;;2.10;;
10719;SDS011;5411;58.386;15.560;2023-05-07T01:02:42;2.70;;;2.47;;
10719;SDS011;5411;58.386;15.560;2023-05-07T01:05:12;2.63;;;2.27;;
10719;SDS011;5411;58.386;15.560;2023-05-07T01:07:42;5.73;;;2.50;;
10719;SDS011;5411;58.386;15.560;2023-05-07T01:10:13;3.07;;;2.40;;
10719;SDS011;5411;58.386;15.560;2023-05-07T01:12:42;3.83;;;2.60;;
10719;SDS011;5411;58.386;15.560;2023-05-07T01:15:12;3.20;;;2.33;;
10719;SDS011;5411;58.386;15.560;2023-05-07T01:17:41;4.37;;;2.13;;
10719;SDS011;5411;58.386;15.560;2023-05-07T01:20:10;3.03;;;2.60;;
10719;SDS011;5411;58.386;15.560;2023-05-07T01:22:41;3.50;;;2.63;;
10719;SDS011;5411;58.386;15.560;2023-05-07T01:25:11;3.37;;;2.30;;
10719;SDS011;5411;58.386;15.560;2023-05-07T01:27:40;8.50;;;2.70;;
10719;SDS011;5411;58.386;15.560;2023-05-07T01:30:08;2.63;;;2.30;;
10719;SDS011;5411;58.386;15.560;2023-05-07T01:32:40;4.17;;;2.73;;
10719;SDS011;5411;58.386;15.560;2023-05-07T01:35:12;4.17;;;2.40;;
10719;SDS011;5411;58.386;15.560;2023-05-07T01:37:47;3.37;;;2.40;;
10719;SDS011;5411;58.386;15.560;2023-05-07T01:40:17;2.50;;;2.30;;
10719;SDS011;5411;58.386;15.560;2023-05-07T01:42:47;2.77;;;2.43;;
10719;SDS011;5411;58.386;15.560;2023-05-07T01:45:16;3.07;;;2.07;;
10719;SDS011;5411;58.386;15.560;2023-05-07T01:47:45;3.20;;;2.17;;
10719;SDS011;5411;58.386;15.560;2023-05-07T01:50:15;4.07;;;2.60;;
10719;SDS011;5411;58.386;15.560;2023-05-07T01:52:49;4.77;;;2.60;;
10719;SDS011;5411;58.386;15.560;2023-05-07T01:55:18;4.07;;;2.50;;
10719;SDS011;5411;58.386;15.560;2023-05-07T01:57:47;2.30;;;2.10;;
10719;SDS011;5411;58.386;15.560;2023-05-07T02:00:15;3.70;;;2.50;;
10719;SDS011;5411;58.386;15.560;2023-05-07T02:02:45;4.57;;;2.53;;
10719;SDS011;5411;58.386;15.560;2023-05-07T02:05:13;3.63;;;2.57;;
10719;SDS011;5411;58.386;15.560;2023-05-07T02:07:42;4.30;;;2.70;;
10719;SDS011;5411;58.386;15.560;2023-05-07T02:10:12;3.13;;;2.67;;
10719;SDS011;5411;58.386;15.560;2023-05-07T02:12:41;2.53;;;2.33;;
10719;SDS011;5411;58.386;15.560;2023-05-07T02:15:10;3.03;;;2.27;;
10719;SDS011;5411;58.386;15.560;2023-05-07T02:20:26;3.33;;;2.50;;
10719;SDS011;5411;58.386;15.560;2023-05-07T02:22:55;4.03;;;2.60;;
10719;SDS011;5411;58.386;15.560;2023-05-07T02:25:25;4.67;;;3.23;;
10719;SDS011;5411;58.386;15.560;2023-05-07T02:27:53;3.90;;;2.43;;
10719;SDS011;5411;58.386;15.560;2023-05-07T02:30:22;3.13;;;2.70;;
10719;SDS011;5411;58.386;15.560;2023-05-07T02:32:51;4.03;;;2.60;;
10719;SDS011;5411;58.386;15.560;2023-05-07T02:35:20;4.20;;;2.50;;
10719;SDS011;5411;58.386;15.560;2023-05-07T02:37:48;3.00;;;2.23;;
10719;SDS011;5411;58.386;15.560;2023-05-07T02:40:16;3.37;;;2.30;;
10719;SDS011;5411;58.386;15.560;2023-05-07T02:42:46;3.00;;;2.50;;
10719;SDS011;5411;58.386;15.560;2023-05-07T02:45:15;8.00;;;2.90;;
10719;SDS011;5411;58.386;15.560;2023-05-07T02:47:44;4.50;;;2.57;;
10719;SDS011;5411;58.386;15.560;2023-05-07T02:50:13;2.80;;;2.50;;
10719;SDS011;5411;58.386;15.560;2023-05-07T02:52:42;3.00;;;2.37;;
10719;SDS011;5411;58.386;15.560;2023-05-07T02:55:10;3.77;;;2.60;;
10719;SDS011;5411;58.386;15.560;2023-05-07T02:57:39;4.17;;;2.13;;
10719;SDS011;5411;58.386;15.560;2023-05-07T03:00:11;3.03;;;2.57;;
10719;SDS011;5411;58.386;15.560;2023-05-07T03:02:41;5.73;;;2.80;;
10719;SDS011;5411;58.386;15.560;2023-05-07T03:05:10;4.27;;;2.60;;
10719;SDS011;5411;58.386;15.560;2023-05-07T03:07:39;4.00;;;2.60;;
10719;SDS011;5411;58.386;15.560;2023-05-07T03:10:11;3.10;;;2.10;;
10719;SDS011;5411;58.386;15.560;2023-05-07T03:12:40;3.77;;;2.17;;
10719;SDS011;5411;58.386;15.560;2023-05-07T03:15:09;2.77;;;2.47;;
10719;SDS011;5411;58.386;15.560;2023-05-07T03:17:41;2.70;;;2.50;;
10719;SDS011;5411;58.386;15.560;2023-05-07T03:20:11;3.07;;;1.97;;
10719;SDS011;5411;58.386;15.560;2023-05-07T03:22:40;3.40;;;2.30;;
10719;SDS011;5411;58.386;15.560;2023-05-07T03:25:08;3.87;;;2.27;;
10719;SDS011;5411;58.386;15.560;2023-05-07T03:27:37;3.07;;;2.70;;
10719;SDS011;5411;58.386;15.560;2023-05-07T03:30:12;4.80;;;2.60;;
10719;SDS011;5411;58.386;15.560;2023-05-07T03:32:45;4.17;;;2.03;;
10719;SDS011;5411;58.386;15.560;2023-05-07T03:35:13;3.17;;;2.07;;
10719;SDS011;5411;58.386;15.560;2023-05-07T03:37:42;3.87;;;2.47;;
10719;SDS011;5411;58.386;15.560;2023-05-07T03:40:12;3.50;;;2.37;;
10719;SDS011;5411;58.386;15.560;2023-05-07T03:42:41;3.90;;;2.40;;
10719;SDS011;5411;58.386;15.560;2023-05-07T03:45:10;5.20;;;3.03;;
10719;SDS011;5411;58.386;15.560;2023-05-07T03:47:39;4.47;;;2.57;;
10719;SDS011;5411;58.386;15.560;2023-05-07T03:50:08;2.87;;;2.40;;
10719;SDS011;5411;58.386;15.560;2023-05-07T03:52:41;2.93;;;2.20;;
10719;SDS011;5411;58.386;15.560;2023-05-07T03:55:10;2.90;;;2.37;;
10719;SDS011;5411;58.386;15.560;2023-05-07T03:57:38;2.73;;;2.10;;
10719;SDS011;5411;58.386;15.560;2023-05-07T04:00:07;2.87;;;2.63;;
10719;SDS011;5411;58.386;15.560;2023-05-07T04:02:39;2.93;;;2.63;;
10719;SDS011;5411;58.386;15.560;2023-05-07T04:05:07;4.73;;;3.13;;
10719;SDS011;5411;58.386;15.560;2023-05-07T04:07:38;3.40;;;2.30;;
10719;SDS011;5411;58.386;15.560;2023-05-07T04:10:06;3.27;;;2.10;;
10719;SDS011;5411;58.386;15.560;2023-05-07T04:12:36;2.47;;;2.27;;
10719;SDS011;5411;58.386;15.560;2023-05-07T04:15:04;4.53;;;2.70;;
10719;SDS011;5411;58.386;15.560;2023-05-07T04:17:36;5.70;;;2.60;;
10719;SDS011;5411;58.386;15.560;2023-05-07T04:20:14;2.50;;;2.30;;
10719;SDS011;5411;58.386;15.560;2023-05-07T04:22:44;3.97;;;2.50;;
10719;SDS011;5411;58.386;15.560;2023-05-07T04:25:12;3.70;;;2.47;;
10719;SDS011;5411;58.386;15.560;2023-05-07T04:27:41;5.57;;;2.80;;
10719;SDS011;5411;58.386;15.560;2023-05-07T04:30:09;3.67;;;2.33;;
10719;SDS011;5411;58.386;15.560;2023-05-07T04:32:41;2.97;;;2.60;;
10719;SDS011;5411;58.386;15.560;2023-05-07T04:35:11;4.23;;;2.37;;
10719;SDS011;5411;58.386;15.560;2023-05-07T04:37:39;4.40;;;2.50;;
10719;SDS011;5411;58.386;15.560;2023-05-07T04:40:08;3.40;;;2.57;;
10719;SDS011;5411;58.386;15.560;2023-05-07T04:42:38;4.67;;;2.53;;
10719;SDS011;5411;58.386;15.560;2023-05-07T04:45:07;4.63;;;2.87;;
10719;SDS011;5411;58.386;15.560;2023-05-07T04:47:36;3.43;;;2.53;;
10719;SDS011;5411;58.386;15.560;2023-05-07T04:50:07;3.63;;;2.73;;
10719;SDS011;5411;58.386;15.560;2023-05-07T04:52:36;5.63;;;2.90;;
10719;SDS011;5411;58.386;15.560;2023-05-07T04:55:05;4.77;;;2.80;;
10719;SDS011;5411;58.386;15.560;2023-05-07T04:57:34;3.53;;;2.40;;
10719;SDS011;5411;58.386;15.560;2023-05-07T05:00:04;3.33;;;2.43;;
10719;SDS011;5411;58.386;15.560;2023-05-07T05:02:35;2.97;;;2.37;;
10719;SDS011;5411;58.386;15.560;2023-05-07T05:05:06;2.83;;;2.17;;
10719;SDS011;5411;58.386;15.560;2023-05-07T05:07:36;4.17;;;2.43;;
10719;SDS011;5411;58.386;15.560;2023-05-07T05:10:05;2.53;;;2.13;;
10719;SDS011;5411;58.386;15.560;2023-05-07T05:12:34;4.30;;;2.77;;
10719;SDS011;5411;58.386;15.560;2023-05-07T05:15:03;4.70;;;2.73;;
10719;SDS011;5411;58.386;15.560;2023-05-07T05:17:32;2.40;;;2.20;;
10719;SDS011;5411;58.386;15.560;2023-05-07T05:20:01;3.40;;;2.17;;
10719;SDS011;5411;58.386;15.560;2023-05-07T05:22:31;2.53;;;2.17;;
10719;SDS011;5411;58.386;15.560;2023-05-07T05:25:00;4.77;;;2.10;;
10719;SDS011;5411;58.386;15.560;2023-05-07T05:27:30;3.73;;;2.10;;
10719;SDS011;5411;58.386;15.560;2023-05-07T05:29:58;2.47;;;2.27;;
10719;SDS011;5411;58.386;15.560;2023-05-07T05:32:27;4.57;;;2.20;;
10719;SDS011;5411;58.386;15.560;2023-05-07T05:34:55;3.40;;;2.40;;
10719;SDS011;5411;58.386;15.560;2023-05-07T05:37:23;4.33;;;2.20;;
10719;SDS011;5411;58.386;15.560;2023-05-07T05:39:54;3.47;;;2.27;;
10719;SDS011;5411;58.386;15.560;2023-05-07T05:42:24;2.10;;;2.00;;
10719;SDS011;5411;58.386;15.560;2023-05-07T05:44:52;2.37;;;2.10;;
10719;SDS011;5411;58.386;15.560;2023-05-07T05:47:21;2.97;;;2.30;;
10719;SDS011;5411;58.386;15.560;2023-05-07T05:49:50;3.00;;;2.03;;
10719;SDS011;5411;58.386;15.560;2023-05-07T05:52:19;2.80;;;2.23;;
10719;SDS011;5411;58.386;15.560;2023-05-07T05:54:50;3.50;;;2.27;;
10719;SDS011;5411;58.386;15.560;2023-05-07T05:57:22;4.40;;;2.20;;
10719;SDS011;5411;58.386;15.560;2023-05-07T05:59:54;2.40;;;1.97;;
10719;SDS011;5411;58.386;15.560;2023-05-07T06:02:22;2.53;;;2.33;;
10719;SDS011;5411;58.386;15.560;2023-05-07T06:04:53;2.50;;;1.80;;
10719;SDS011;5411;58.386;15.560;2023-05-07T06:07:21;3.87;;;2.13;;
10719;SDS011;5411;58.386;15.560;2023-05-07T06:09:50;2.53;;;1.90;;
10719;SDS011;5411;58.386;15.560;2023-05-07T06:12:18;2.83;;;1.70;;
10719;SDS011;5411;58.386;15.560;2023-05-07T06:14:48;2.80;;;1.73;;
10719;SDS011;5411;58.386;15.560;2023-05-07T06:17:16;5.17;;;2.20;;
10719;SDS011;5411;58.386;15.560;2023-05-07T06:19:47;3.60;;;2.00;;
10719;SDS011;5411;58.386;15.560;2023-05-07T06:22:16;1.60;;;1.50;;
10719;SDS011;5411;58.386;15.560;2023-05-07T06:24:47;2.63;;;1.90;;
10719;SDS011;5411;58.386;15.560;2023-05-07T06:27:16;2.07;;;1.87;;
10719;SDS011;5411;58.386;15.560;2023-05-07T06:29:44;3.50;;;2.00;;
10719;SDS011;5411;58.386;15.560;2023-05-07T06:32:14;3.27;;;2.07;;
10719;SDS011;5411;58.386;15.560;2023-05-07T06:34:43;2.07;;;1.77;;
10719;SDS011;5411;58.386;15.560;2023-05-07T06:37:11;4.07;;;1.90;;
10719;SDS011;5411;58.386;15.560;2023-05-07T06:39:40;2.80;;;2.00;;
10719;SDS011;5411;58.386;15.560;2023-05-07T06:42:10;2.97;;;1.80;;
10719;SDS011;5411;58.386;15.560;2023-05-07T06:44:38;3.60;;;1.73;;
10719;SDS011;5411;58.386;15.560;2023-05-07T06:47:07;2.70;;;1.63;;
10719;SDS011;5411;58.386;15.560;2023-05-07T06:49:37;1.97;;;1.77;;
10719;SDS011;5411;58.386;15.560;2023-05-07T06:52:05;4.67;;;1.90;;
10719;SDS011;5411;58.386;15.560;2023-05-07T06:54:35;3.27;;;2.07;;
10719;SDS011;5411;58.386;15.560;2023-05-07T06:57:05;2.23;;;1.63;;
10719;SDS011;5411;58.386;15.560;2023-05-07T06:59:33;3.93;;;1.90;;
10719;SDS011;5411;58.386;15.560;2023-05-07T07:02:02;3.30;;;2.10;;
10719;SDS011;5411;58.386;15.560;2023-05-07T07:04:30;2.07;;;1.87;;
10719;SDS011;5411;58.386;15.560;2023-05-07T07:07:00;2.00;;;1.80;;
10719;SDS011;5411;58.386;15.560;2023-05-07T07:09:29;3.10;;;2.00;;
10719;SDS011;5411;58.386;15.560;2023-05-07T07:11:57;2.50;;;1.77;;
10719;SDS011;5411;58.386;15.560;2023-05-07T07:14:26;1.73;;;1.63;;
10719;SDS011;5411;58.386;15.560;2023-05-07T07:16:56;1.60;;;1.50;;
10719;SDS011;5411;58.386;15.560;2023-05-07T07:19:25;1.80;;;1.17;;
10719;SDS011;5411;58.386;15.560;2023-05-07T07:21:54;2.00;;;1.67;;
10719;SDS011;5411;58.386;15.560;2023-05-07T07:24:29;2.27;;;1.80;;
10719;SDS011;5411;58.386;15.560;2023-05-07T07:27:00;1.63;;;1.53;;
10719;SDS011;5411;58.386;15.560;2023-05-07T07:29:30;4.10;;;2.10;;
10719;SDS011;5411;58.386;15.560;2023-05-07T07:31:59;1.57;;;1.47;;
10719;SDS011;5411;58.386;15.560;2023-05-07T07:34:27;2.30;;;1.70;;
10719;SDS011;5411;58.386;15.560;2023-05-07T07:36:56;3.00;;;1.70;;
10719;SDS011;5411;58.386;15.560;2023-05-07T07:39:26;1.80;;;1.70;;
10719;SDS011;5411;58.386;15.560;2023-05-07T07:41:55;1.93;;;1.80;;
10719;SDS011;5411;58.386;15.560;2023-05-07T07:44:24;2.77;;;1.80;;
10719;SDS011;5411;58.386;15.560;2023-05-07T07:46:56;4.90;;;1.80;;
10719;SDS011;5411;58.386;15.560;2023-05-07T07:49:27;3.43;;;1.87;;
10719;SDS011;5411;58.386;15.560;2023-05-07T07:51:55;2.87;;;1.63;;
10719;SDS011;5411;58.386;15.560;2023-05-07T07:54:27;5.73;;;2.73;;
10719;SDS011;5411;58.386;15.560;2023-05-07T07:56:55;1.70;;;1.60;;
10719;SDS011;5411;58.386;15.560;2023-05-07T07:59:24;3.43;;;1.80;;
10719;SDS011;5411;58.386;15.560;2023-05-07T08:01:52;1.70;;;1.60;;
10719;SDS011;5411;58.386;15.560;2023-05-07T08:04:23;2.17;;;1.97;;
10719;SDS011;5411;58.386;15.560;2023-05-07T08:06:51;5.63;;;1.93;;
10719;SDS011;5411;58.386;15.560;2023-05-07T08:09:23;3.20;;;1.93;;
10719;SDS011;5411;58.386;15.560;2023-05-07T08:12:04;2.43;;;2.23;;
10719;SDS011;5411;58.386;15.560;2023-05-07T08:14:35;2.47;;;1.80;;
10719;SDS011;5411;58.386;15.560;2023-05-07T08:17:04;3.23;;;1.73;;
10719;SDS011;5411;58.386;15.560;2023-05-07T08:19:32;6.23;;;1.90;;
10719;SDS011;5411;58.386;15.560;2023-05-07T08:22:02;2.33;;;1.90;;
10719;SDS011;5411;58.386;15.560;2023-05-07T08:24:30;2.23;;;1.80;;
10719;SDS011;5411;58.386;15.560;2023-05-07T08:27:03;3.90;;;2.13;;
10719;SDS011;5411;58.386;15.560;2023-05-07T08:29:35;3.00;;;2.30;;
10719;SDS011;5411;58.386;15.560;2023-05-07T08:32:03;2.00;;;1.70;;
10719;SDS011;5411;58.386;15.560;2023-05-07T08:34:32;2.80;;;1.90;;
10719;SDS011;5411;58.386;15.560;2023-05-07T08:37:00;2.63;;;2.00;;
10719;SDS011;5411;58.386;15.560;2023-05-07T08:39:32;3.27;;;2.33;;
10719;SDS011;5411;58.386;15.560;2023-05-07T08:42:03;2.00;;;1.80;;
10719;SDS011;5411;58.386;15.560;2023-05-07T08:44:34;1.70;;;1.60;;
10719;SDS011;5411;58.386;15.560;2023-05-07T08:47:03;6.20;;;2.07;;
10719;SDS011;5411;58.386;15.560;2023-05-07T08:49:34;2.23;;;1.90;;
10719;SDS011;5411;58.386;15.560;2023-05-07T08:52:03;3.03;;;1.87;;
10719;SDS011;5411;58.386;15.560;2023-05-07T08:54:35;2.70;;;1.67;;
10719;SDS011;5411;58.386;15.560;2023-05-07T08:59:58;2.23;;;1.50;;
10719;SDS011;5411;58.386;15.560;2023-05-07T09:02:27;4.00;;;2.13;;
10719;SDS011;5411;58.386;15.560;2023-05-07T09:04:55;4.40;;;1.60;;
10719;SDS011;5411;58.386;15.560;2023-05-07T09:07:25;3.17;;;1.63;;
10719;SDS011;5411;58.386;15.560;2023-05-07T09:09:53;2.30;;;2.00;;
10719;SDS011;5411;58.386;15.560;2023-05-07T09:12:31;3.10;;;2.10;;
10719;SDS011;5411;58.386;15.560;2023-05-07T09:15:01;1.83;;;1.73;;
10719;SDS011;5411;58.386;15.560;2023-05-07T09:17:30;2.30;;;1.80;;
10719;SDS011;5411;58.386;15.560;2023-05-07T09:20:01;2.93;;;2.00;;
10719;SDS011;5411;58.386;15.560;2023-05-07T09:22:33;2.83;;;1.90;;
10719;SDS011;5411;58.386;15.560;2023-05-07T09:25:01;2.07;;;1.50;;
10719;SDS011;5411;58.386;15.560;2023-05-07T09:27:30;2.37;;;1.80;;
10719;SDS011;5411;58.386;15.560;2023-05-07T09:30:03;1.50;;;1.40;;
10719;SDS011;5411;58.386;15.560;2023-05-07T09:32:34;2.10;;;1.40;;
10719;SDS011;5411;58.386;15.560;2023-05-07T09:35:16;1.70;;;1.60;;
10719;SDS011;5411;58.386;15.560;2023-05-07T09:37:47;3.00;;;1.60;;
10719;SDS011;5411;58.386;15.560;2023-05-07T09:40:22;2.90;;;1.60;;
10719;SDS011;5411;58.386;15.560;2023-05-07T09:42:54;1.43;;;1.30;;
10719;SDS011;5411;58.386;15.560;2023-05-07T09:45:23;1.57;;;1.47;;
10719;SDS011;5411;58.386;15.560;2023-05-07T09:47:54;3.90;;;1.50;;
10719;SDS011;5411;58.386;15.560;2023-05-07T09:50:25;1.90;;;1.60;;
10719;SDS011;5411;58.386;15.560;2023-05-07T09:52:56;2.00;;;1.60;;
10719;SDS011;5411;58.386;15.560;2023-05-07T09:55:24;3.63;;;1.50;;
10719;SDS011;5411;58.386;15.560;2023-05-07T09:57:56;2.50;;;1.53;;
10719;SDS011;5411;58.386;15.560;2023-05-07T10:00:28;2.70;;;1.63;;
10719;SDS011;5411;58.386;15.560;2023-05-07T10:02:57;3.13;;;1.50;;
10719;SDS011;5411;58.386;15.560;2023-05-07T10:05:29;1.80;;;1.60;;
10719;SDS011;5411;58.386;15.560;2023-05-07T10:07:58;1.60;;;1.50;;
10719;SDS011;5411;58.386;15.560;2023-05-07T10:10:30;2.70;;;1.40;;
10719;SDS011;5411;58.386;15.560;2023-05-07T10:13:02;2.07;;;1.60;;
10719;SDS011;5411;58.386;15.560;2023-05-07T10:15:36;2.47;;;1.63;;
10719;SDS011;5411;58.386;15.560;2023-05-07T10:18:05;1.70;;;1.60;;
10719;SDS011;5411;58.386;15.560;2023-05-07T10:20:34;1.50;;;1.40;;
10719;SDS011;5411;58.386;15.560;2023-05-07T10:23:05;2.40;;;1.70;;
10719;SDS011;5411;58.386;15.560;2023-05-07T10:25:35;2.53;;;1.60;;
10719;SDS011;5411;58.386;15.560;2023-05-07T10:28:06;1.90;;;1.30;;
10719;SDS011;5411;58.386;15.560;2023-05-07T10:30:40;1.80;;;1.70;;
10719;SDS011;5411;58.386;15.560;2023-05-07T10:33:21;2.60;;;1.60;;
10719;SDS011;5411;58.386;15.560;2023-05-07T10:35:59;1.80;;;1.23;;
10719;SDS011;5411;58.386;15.560;2023-05-07T10:38:31;2.27;;;1.30;;
10719;SDS011;5411;58.386;15.560;2023-05-07T10:41:04;3.00;;;1.63;;
10719;SDS011;5411;58.386;15.560;2023-05-07T10:43:40;2.10;;;1.40;;
10719;SDS011;5411;58.386;15.560;2023-05-07T10:46:10;2.50;;;1.60;;
10719;SDS011;5411;58.386;15.560;2023-05-07T10:49:06;1.43;;;1.33;;
10719;SDS011;5411;58.386;15.560;2023-05-07T10:51:38;1.70;;;1.57;;
10719;SDS011;5411;58.386;15.560;2023-05-07T10:54:19;1.40;;;1.30;;
10719;SDS011;5411;58.386;15.560;2023-05-07T10:56:54;1.40;;;1.27;;
10719;SDS011;5411;58.386;15.560;2023-05-07T10:59:36;2.73;;;1.57;;
10719;SDS011;5411;58.386;15.560;2023-05-07T11:02:10;3.07;;;1.50;;
10719;SDS011;5411;58.386;15.560;2023-05-07T11:04:41;1.87;;;1.53;;
10719;SDS011;5411;58.386;15.560;2023-05-07T11:10:03;1.30;;;1.20;;
10719;SDS011;5411;58.386;15.560;2023-05-07T11:12:50;2.27;;;1.40;;
10719;SDS011;5411;58.386;15.560;2023-05-07T11:15:43;1.60;;;1.50;;
10719;SDS011;5411;58.386;15.560;2023-05-07T11:18:13;1.50;;;1.40;;
10719;SDS011;5411;58.386;15.560;2023-05-07T11:20:55;1.50;;;1.40;;
10719;SDS011;5411;58.386;15.560;2023-05-07T11:26:26;2.03;;;1.70;;
10719;SDS011;5411;58.386;15.560;2023-05-07T11:28:57;6.30;;;1.67;;
10719;SDS011;5411;58.386;15.560;2023-05-07T11:31:28;1.53;;;1.43;;
10719;SDS011;5411;58.386;15.560;2023-05-07T11:33:59;1.50;;;1.40;;
10719;SDS011;5411;58.386;15.560;2023-05-07T11:36:30;1.57;;;1.47;;
10719;SDS011;5411;58.386;15.560;2023-05-07T11:39:00;1.60;;;1.40;;
10719;SDS011;5411;58.386;15.560;2023-05-07T11:41:35;4.17;;;1.70;;
10719;SDS011;5411;58.386;15.560;2023-05-07T11:44:05;3.00;;;1.40;;
10719;SDS011;5411;58.386;15.560;2023-05-07T11:46:35;1.57;;;1.47;;
10719;SDS011;5411;58.386;15.560;2023-05-07T11:49:13;1.60;;;1.50;;
10719;SDS011;5411;58.386;15.560;2023-05-07T11:51:41;2.97;;;1.50;;
10719;SDS011;5411;58.386;15.560;2023-05-07T11:54:11;4.33;;;1.50;;
10719;SDS011;5411;58.386;15.560;2023-05-07T11:56:44;1.70;;;1.53;;
10719;SDS011;5411;58.386;15.560;2023-05-07T11:59:17;2.80;;;1.43;;
10719;SDS011;5411;58.386;15.560;2023-05-07T12:01:50;2.53;;;1.50;;
10719;SDS011;5411;58.386;15.560;2023-05-07T12:04:21;2.23;;;1.63;;
10719;SDS011;5411;58.386;15.560;2023-05-07T12:06:53;2.53;;;1.60;;
10719;SDS011;5411;58.386;15.560;2023-05-07T12:09:22;2.77;;;1.50;;
10719;SDS011;5411;58.386;15.560;2023-05-07T12:11:51;1.93;;;1.60;;
10719;SDS011;5411;58.386;15.560;2023-05-07T12:14:26;4.10;;;1.43;;
10719;SDS011;5411;58.386;15.560;2023-05-07T12:16:57;3.07;;;1.60;;
10719;SDS011;5411;58.386;15.560;2023-05-07T12:19:30;1.50;;;1.40;;
10719;SDS011;5411;58.386;15.560;2023-05-07T12:21:59;2.87;;;1.57;;
10719;SDS011;5411;58.386;15.560;2023-05-07T12:24:41;2.70;;;1.43;;
10719;SDS011;5411;58.386;15.560;2023-05-07T12:27:11;1.50;;;1.40;;
10719;SDS011;5411;58.386;15.560;2023-05-07T12:29:39;1.67;;;1.40;;
10719;SDS011;5411;58.386;15.560;2023-05-07T12:32:14;1.57;;;1.40;;
10719;SDS011;5411;58.386;15.560;2023-05-07T12:34:44;1.80;;;1.43;;
10719;SDS011;5411;58.386;15.560;2023-05-07T12:37:15;3.07;;;1.60;;
10719;SDS011;5411;58.386;15.560;2023-05-07T12:39:44;1.73;;;1.37;;
10719;SDS011;5411;58.386;15.560;2023-05-07T12:42:15;2.00;;;1.50;;
10719;SDS011;5411;58.386;15.560;2023-05-07T12:44:45;2.87;;;1.40;;
10719;SDS011;5411;58.386;15.560;2023-05-07T12:47:16;2.97;;;1.53;;
10719;SDS011;5411;58.386;15.560;2023-05-07T12:49:44;3.50;;;1.53;;
10719;SDS011;5411;58.386;15.560;2023-05-07T12:52:13;2.30;;;1.57;;
10719;SDS011;5411;58.386;15.560;2023-05-07T12:54:42;3.20;;;1.60;;
10719;SDS011;5411;58.386;15.560;2023-05-07T12:57:12;3.07;;;1.60;;
10719;SDS011;5411;58.386;15.560;2023-05-07T12:59:46;1.40;;;1.30;;
10719;SDS011;5411;58.386;15.560;2023-05-07T13:02:16;2.70;;;1.57;;
10719;SDS011;5411;58.386;15.560;2023-05-07T13:04:45;1.87;;;1.37;;
10719;SDS011;5411;58.386;15.560;2023-05-07T13:07:14;1.40;;;1.30;;
10719;SDS011;5411;58.386;15.560;2023-05-07T13:09:42;1.60;;;1.50;;
10719;SDS011;5411;58.386;15.560;2023-05-07T13:12:11;1.50;;;1.40;;
10719;SDS011;5411;58.386;15.560;2023-05-07T13:14:40;2.40;;;1.53;;
10719;SDS011;5411;58.386;15.560;2023-05-07T13:17:08;3.07;;;1.90;;
10719;SDS011;5411;58.386;15.560;2023-05-07T13:19:38;1.77;;;1.60;;
10719;SDS011;5411;58.386;15.560;2023-05-07T13:22:06;1.70;;;1.60;;
10719;SDS011;5411;58.386;15.560;2023-05-07T13:24:34;2.13;;;1.70;;
10719;SDS011;5411;58.386;15.560;2023-05-07T13:27:03;4.97;;;1.60;;
10719;SDS011;5411;58.386;15.560;2023-05-07T13:29:32;3.97;;;1.53;;
10719;SDS011;5411;58.386;15.560;2023-05-07T13:32:05;1.87;;;1.77;;
10719;SDS011;5411;58.386;15.560;2023-05-07T13:34:33;2.67;;;1.53;;
10719;SDS011;5411;58.386;15.560;2023-05-07T13:37:04;1.57;;;1.47;;
10719;SDS011;5411;58.386;15.560;2023-05-07T13:39:36;4.47;;;1.67;;
10719;SDS011;5411;58.386;15.560;2023-05-07T13:42:06;2.97;;;1.43;;
10719;SDS011;5411;58.386;15.560;2023-05-07T13:44:35;1.40;;;1.17;;
10719;SDS011;5411;58.386;15.560;2023-05-07T13:47:04;2.47;;;1.50;;
10719;SDS011;5411;58.386;15.560;2023-05-07T13:49:32;2.93;;;1.13;;
10719;SDS011;5411;58.386;15.560;2023-05-07T13:52:01;4.77;;;1.40;;
10719;SDS011;5411;58.386;15.560;2023-05-07T13:54:30;2.80;;;1.50;;
10719;SDS011;5411;58.386;15.560;2023-05-07T13:56:59;2.23;;;1.53;;
10719;SDS011;5411;58.386;15.560;2023-05-07T13:59:29;2.40;;;1.47;;
10719;SDS011;5411;58.386;15.560;2023-05-07T14:01:57;1.67;;;1.30;;
10719;SDS011;5411;58.386;15.560;2023-05-07T14:04:25;2.97;;;1.40;;
10719;SDS011;5411;58.386;15.560;2023-05-07T14:06:54;1.70;;;1.60;;
10719;SDS011;5411;58.386;15.560;2023-05-07T14:09:23;2.83;;;1.60;;
10719;SDS011;5411;58.386;15.560;2023-05-07T14:11:53;1.83;;;1.53;;
10719;SDS011;5411;58.386;15.560;2023-05-07T14:14:23;3.80;;;1.60;;
10719;SDS011;5411;58.386;15.560;2023-05-07T14:16:52;3.83;;;1.50;;
10719;SDS011;5411;58.386;15.560;2023-05-07T14:19:20;3.57;;;1.77;;
10719;SDS011;5411;58.386;15.560;2023-05-07T14:21:51;2.77;;;1.20;;
10719;SDS011;5411;58.386;15.560;2023-05-07T14:24:19;2.77;;;1.60;;
10719;SDS011;5411;58.386;15.560;2023-05-07T14:27:05;1.90;;;1.57;;
10719;SDS011;5411;58.386;15.560;2023-05-07T14:29:33;3.97;;;1.43;;
10719;SDS011;5411;58.386;15.560;2023-05-07T14:32:02;1.63;;;1.30;;
10719;SDS011;5411;58.386;15.560;2023-05-07T14:34:31;3.77;;;1.43;;
10719;SDS011;5411;58.386;15.560;2023-05-07T14:37:00;1.57;;;1.20;;
10719;SDS011;5411;58.386;15.560;2023-05-07T14:39:32;2.53;;;1.70;;
10719;SDS011;5411;58.386;15.560;2023-05-07T14:42:07;2.27;;;1.73;;
10719;SDS011;5411;58.386;15.560;2023-05-07T14:44:35;5.30;;;1.60;;
10719;SDS011;5411;58.386;15.560;2023-05-07T14:47:04;1.50;;;1.40;;
10719;SDS011;5411;58.386;15.560;2023-05-07T14:49:32;2.00;;;1.80;;
10719;SDS011;5411;58.386;15.560;2023-05-07T14:52:04;1.93;;;1.50;;
10719;SDS011;5411;58.386;15.560;2023-05-07T14:54:33;1.50;;;1.40;;
10719;SDS011;5411;58.386;15.560;2023-05-07T14:57:04;2.80;;;1.73;;
10719;SDS011;5411;58.386;15.560;2023-05-07T14:59:39;2.10;;;1.53;;
10719;SDS011;5411;58.386;15.560;2023-05-07T15:02:08;2.30;;;1.20;;
10719;SDS011;5411;58.386;15.560;2023-05-07T15:04:37;1.43;;;1.30;;
10719;SDS011;5411;58.386;15.560;2023-05-07T15:07:12;1.50;;;1.40;;
10719;SDS011;5411;58.386;15.560;2023-05-07T15:09:41;3.07;;;1.50;;
10719;SDS011;5411;58.386;15.560;2023-05-07T15:12:12;1.93;;;1.40;;
10719;SDS011;5411;58.386;15.560;2023-05-07T15:14:41;1.73;;;1.50;;
10719;SDS011;5411;58.386;15.560;2023-05-07T15:17:10;2.97;;;1.63;;